Aérodrome :
LOGIN :

S'inscrire | Disclaimer

   EN    FR    IT 

 










Légende :    VFR   VFR Marginal   IFR   IFR Intensif   IFR Très Intensif
Visi : 
Plafond : 
>= 8 km
>= 3000ft
5 à 8 km
1000 à 3000 ft
1500m à 5 km
500 à 1000 ft
800 à 1500m
200 à 500 ft
< 800m
< 200 ft
Symboles :   Orages  Brouillard  Fortes neiges  Fortes précipitations  Vent > 20 kt
SIGMETs :   Divers  Orages  Givrage  Turbulence  Onde Orograph.  Cendres Volcan.






- Altitude de l'aérodrome : 587 ft
- Code IATA : XCR


LFOK - Chalons Vatry

DERNIER METAR :
  • 122200Z AUTO 20019KT 9999 OVC006/// ///TCU 05/05 Q0985 TEMPO 3000 RA BECMG 23017G27KT OVC006

METARs EXPIRÉS :
  • 122130Z AUTO 18021KT 5000 -RA BR BKN009/// OVC014/// ///CB 04/04 Q0985 TEMPO RA BECMG 23017G27KT OVC006
  • 122100Z AUTO 17024KT 6000 -RA OVC012/// ///TCU 04/04 Q0986 TEMPO 3000 RA BECMG 23017G27KT OVC006
  • 122030Z AUTO 17023KT 6000 -RA BKN016/// BKN023/// OVC037/// ///CB 04/03 Q0987 TEMPO 3000 RA BECMG 23017G27KT OVC006
  • 122000Z AUTO 17023KT 6000 -RA BKN017/// BKN022/// OVC039/// ///CB 04/03 Q0988 TEMPO 4000 RA BECMG 23017G27KT OVC006
  • 121930Z AUTO 17021KT 7000 RA BKN019/// BKN024/// OVC029/// ///CB 04/03 Q0989 TEMPO 4000 RA BECMG 23017G27KT OVC006

TAF TAF LFOK
Valide du 12 à 18h jusqu'au 13 à 18h UTC


121700Z 1218/1318 17020KT 9999 OVC020
TEMPO 1218/1221 17020G35KT 4000 RA
BECMG 1221/1222 23017G27KT OVC006
TEMPO 1222/1305 3000 RA
FM130500 26017G28KT 9999 BKN030
TEMPO 1305/1316 26025G38KT 3000 SHRA BKN030CB



MET'MAP, la Météo Aéronautique d'un coup d'oeil ! - Copyright ORBIFLY Décembre 2007 - Disclaimer

ORBIFLY MET'MAP TEAM :

Programmation & Développement : Alexandra Zaïnal
Sur une idée originale de : Baudouin d'Aumeries
Assistance à la programmation : Marc-Olivier Méhu
Soutien technique & logistique : Manuel Goepfert

Contact : metmap@orbifly.com




SOURCES & CREDITS :

   NOAA